createdAt,value
2017-09-08T00:01:12.721Z,46.30
2017-09-08T00:03:40.804Z,46.40
2017-09-08T00:06:08.890Z,46.60
2017-09-08T00:08:36.980Z,46.40
2017-09-08T00:11:05.081Z,47.10
2017-09-08T00:13:33.164Z,47.10
2017-09-08T00:16:01.244Z,46.40
2017-09-08T00:18:29.345Z,46.40
2017-09-08T00:20:57.411Z,46.60
2017-09-08T00:23:25.498Z,46.90
2017-09-08T00:25:54.348Z,47.10
2017-09-08T00:28:22.436Z,47.00
2017-09-08T00:30:50.532Z,46.80
2017-09-08T00:33:18.615Z,46.80
2017-09-08T00:35:47.468Z,46.80
2017-09-08T00:38:15.556Z,46.80
2017-09-08T00:40:43.645Z,46.80
2017-09-08T00:43:12.497Z,47.10
2017-09-08T00:45:41.515Z,46.40
2017-09-08T00:48:09.596Z,46.60
2017-09-08T00:50:38.453Z,46.70
2017-09-08T00:53:06.544Z,46.40
2017-09-08T00:55:34.625Z,46.60
2017-09-08T00:58:02.697Z,46.40
2017-09-08T01:00:30.784Z,47.20
2017-09-08T01:02:59.641Z,46.40
2017-09-08T01:05:27.733Z,46.30
2017-09-08T01:07:55.813Z,46.30
2017-09-08T01:10:23.901Z,46.20
2017-09-08T01:12:52.191Z,46.30
2017-09-08T01:15:21.036Z,46.20
2017-09-08T01:17:49.109Z,46.10
2017-09-08T01:20:17.192Z,45.80
2017-09-08T01:22:45.272Z,46.80
2017-09-08T01:25:13.357Z,46.10
2017-09-08T01:27:41.439Z,46.30
2017-09-08T01:30:10.301Z,46.40
2017-09-08T01:32:38.425Z,46.30
2017-09-08T01:35:06.528Z,46.40
2017-09-08T01:37:34.613Z,46.20
2017-09-08T01:40:02.709Z,46.40
2017-09-08T01:42:31.547Z,46.00
2017-09-08T01:44:59.635Z,45.90
2017-09-08T01:47:27.726Z,46.00
2017-09-08T01:49:55.817Z,45.90
2017-09-08T01:52:23.891Z,45.50
2017-09-08T01:54:52.764Z,45.20
2017-09-08T01:57:20.899Z,45.20
2017-09-08T01:59:48.985Z,45.40
2017-09-08T02:02:17.071Z,45.20
2017-09-08T02:04:45.153Z,45.20
2017-09-08T02:07:13.241Z,45.40
2017-09-08T02:09:41.328Z,45.30
2017-09-08T02:12:09.410Z,45.60
2017-09-08T02:14:37.505Z,45.90
2017-09-08T02:17:05.579Z,45.90
2017-09-08T02:19:33.672Z,46.10
2017-09-08T02:22:07.388Z,46.20
2017-09-08T02:24:35.463Z,46.40
2017-09-08T02:27:03.540Z,46.40
2017-09-08T02:29:31.627Z,46.60
2017-09-08T02:31:59.701Z,46.70
2017-09-08T02:34:29.254Z,47.10
2017-09-08T02:36:57.342Z,47.00
2017-09-08T02:39:25.441Z,47.00
2017-09-08T02:41:53.508Z,47.40
2017-09-08T02:44:21.600Z,47.10
2017-09-08T02:46:50.447Z,47.20
2017-09-08T02:49:18.537Z,47.00
2017-09-08T02:51:46.617Z,47.00
2017-09-08T02:54:14.714Z,46.90
2017-09-08T02:56:42.800Z,47.00
2017-09-08T02:59:10.897Z,47.00
2017-09-08T03:01:39.740Z,46.70
2017-09-08T03:04:07.832Z,46.60
2017-09-08T03:06:35.908Z,46.70
2017-09-08T03:09:03.984Z,46.80
2017-09-08T03:11:32.080Z,46.90
2017-09-08T03:14:00.161Z,47.10
2017-09-08T03:16:28.263Z,46.70
2017-09-08T03:18:56.331Z,46.90
2017-09-08T03:21:24.424Z,46.90
2017-09-08T03:23:52.493Z,47.10
2017-09-08T03:26:21.347Z,47.30
2017-09-08T03:28:49.538Z,47.10
2017-09-08T03:31:17.624Z,47.40
2017-09-08T03:33:45.704Z,47.10
2017-09-08T03:36:13.784Z,47.40
2017-09-08T03:38:41.859Z,47.30
2017-09-08T03:41:09.964Z,47.20
2017-09-08T03:43:38.043Z,47.50
2017-09-08T03:46:06.128Z,47.20
2017-09-08T03:48:34.212Z,47.30
2017-09-08T03:51:02.299Z,47.20
2017-09-08T03:53:30.371Z,47.20
2017-09-08T03:55:58.464Z,47.10
2017-09-08T03:58:27.324Z,47.30
2017-09-08T04:00:55.416Z,47.10
2017-09-08T04:03:23.494Z,47.20
2017-09-08T04:05:51.585Z,46.90
2017-09-08T04:08:19.656Z,46.80
2017-09-08T04:10:48.505Z,47.20
2017-09-08T04:13:16.594Z,47.10
2017-09-08T04:15:44.680Z,47.00
2017-09-08T04:18:13.529Z,47.10
2017-09-08T04:20:41.616Z,46.70
2017-09-08T04:23:09.700Z,46.70
2017-09-08T04:25:37.783Z,46.80
2017-09-08T04:28:05.855Z,46.90
2017-09-08T04:30:33.941Z,46.90
2017-09-08T04:33:02.028Z,47.00
2017-09-08T04:35:30.119Z,47.10
2017-09-08T04:37:58.203Z,47.10
2017-09-08T04:40:26.308Z,47.10
2017-09-08T04:42:54.384Z,47.20
2017-09-08T04:45:22.473Z,47.10
2017-09-08T04:47:50.557Z,47.00
2017-09-08T04:50:19.416Z,47.10
2017-09-08T04:52:47.492Z,47.10
2017-09-08T04:55:15.580Z,47.10
2017-09-08T04:57:44.444Z,47.80
2017-09-08T05:00:12.520Z,46.90
2017-09-08T05:02:40.614Z,47.00
2017-09-08T05:05:09.463Z,47.60
2017-09-08T05:07:37.548Z,46.80
2017-09-08T05:10:05.631Z,46.80
2017-09-08T05:12:33.716Z,46.90
2017-09-08T05:15:02.617Z,46.40
2017-09-08T05:17:31.465Z,46.60
2017-09-08T05:19:59.549Z,46.50
2017-09-08T05:22:27.631Z,46.30
2017-09-08T05:24:55.718Z,46.30
2017-09-08T05:27:23.794Z,46.30
2017-09-08T05:29:52.644Z,46.00
2017-09-08T05:32:20.728Z,46.00
2017-09-08T05:34:48.824Z,46.10
2017-09-08T05:37:16.904Z,45.90
2017-09-08T05:39:44.983Z,45.80
2017-09-08T05:42:14.251Z,45.70
2017-09-08T05:44:42.337Z,45.60
2017-09-08T05:47:10.421Z,45.80
2017-09-08T05:49:39.263Z,45.60
2017-09-08T05:52:07.369Z,45.60
2017-09-08T05:54:35.448Z,45.60
2017-09-08T05:57:03.552Z,45.70
2017-09-08T05:59:31.624Z,45.50
2017-09-08T06:01:59.725Z,45.30
2017-09-08T06:04:28.210Z,45.20
2017-09-08T06:06:56.349Z,45.10
2017-09-08T06:09:24.416Z,44.80
2017-09-08T06:11:53.269Z,45.20
2017-09-08T06:14:21.352Z,45.10
2017-09-08T06:16:49.437Z,45.00
2017-09-08T06:19:17.511Z,45.00
2017-09-08T06:21:46.370Z,44.60
2017-09-08T06:24:14.448Z,44.50
2017-09-08T06:26:42.544Z,44.50
2017-09-08T06:29:10.624Z,44.50
2017-09-08T06:31:38.721Z,43.70
2017-09-08T06:34:06.821Z,44.20
2017-09-08T06:36:34.936Z,44.30
2017-09-08T06:39:03.053Z,44.20
2017-09-08T06:41:31.172Z,43.30
2017-09-08T06:43:59.250Z,43.40
2017-09-08T06:46:27.340Z,43.60
2017-09-08T06:48:55.415Z,43.40
2017-09-08T06:51:24.267Z,43.60
2017-09-08T06:53:52.365Z,43.50
2017-09-08T06:56:21.258Z,41.50
2017-09-08T06:58:50.120Z,42.50
2017-09-08T07:01:18.221Z,42.50
2017-09-08T07:03:47.073Z,42.20
2017-09-08T07:06:15.171Z,41.70
2017-09-08T07:08:43.256Z,41.10
2017-09-08T07:11:12.180Z,41.00
2017-09-08T07:13:40.280Z,41.00
2017-09-08T07:16:08.368Z,41.10
2017-09-08T07:18:36.445Z,40.70
2017-09-08T07:21:04.539Z,40.50
2017-09-08T07:23:32.611Z,39.80
2017-09-08T07:26:00.689Z,39.60
2017-09-08T07:28:28.765Z,39.60
2017-09-08T07:30:56.861Z,39.00
2017-09-08T07:33:24.938Z,38.90
2017-09-08T07:35:53.032Z,38.50
2017-09-08T07:38:21.109Z,38.70
2017-09-08T07:40:49.183Z,38.60
2017-09-08T07:43:17.271Z,37.80
2017-09-08T07:45:45.359Z,37.60
2017-09-08T07:48:13.444Z,37.30
2017-09-08T07:50:42.283Z,36.30
2017-09-08T07:53:10.372Z,36.20
2017-09-08T07:55:38.448Z,36.00
2017-09-08T07:58:06.540Z,36.20
2017-09-08T08:00:34.621Z,36.10
2017-09-08T08:03:02.700Z,36.20
2017-09-08T08:05:31.548Z,36.80
2017-09-08T08:07:59.627Z,36.00
2017-09-08T08:10:27.700Z,35.70
2017-09-08T08:12:55.784Z,36.20
2017-09-08T08:15:23.861Z,36.20
2017-09-08T08:17:51.943Z,36.20
2017-09-08T08:20:20.016Z,35.70
2017-09-08T08:22:48.091Z,35.50
2017-09-08T08:25:16.172Z,34.90
2017-09-08T08:27:45.015Z,34.50
2017-09-08T08:30:13.113Z,34.40
2017-09-08T08:32:41.204Z,34.50
2017-09-08T08:35:10.076Z,34.20
2017-09-08T08:37:38.151Z,34.10
2017-09-08T08:40:06.241Z,34.50
2017-09-08T08:42:35.098Z,33.80
2017-09-08T08:45:03.192Z,33.70
2017-09-08T08:47:31.259Z,33.20
2017-09-08T08:49:59.332Z,33.10
2017-09-08T08:52:27.416Z,32.60
2017-09-08T08:54:55.488Z,32.20
2017-09-08T08:57:24.328Z,31.90
2017-09-08T08:59:52.412Z,31.80
2017-09-08T09:02:20.490Z,30.80
2017-09-08T09:04:48.568Z,30.80
2017-09-08T09:07:16.650Z,31.00
2017-09-08T09:09:44.745Z,30.50
2017-09-08T09:12:13.587Z,30.00
2017-09-08T09:14:41.684Z,29.80
2017-09-08T09:17:09.768Z,29.20
2017-09-08T09:19:37.839Z,28.90
2017-09-08T09:22:05.911Z,29.00
2017-09-08T09:24:33.989Z,28.90
2017-09-08T09:27:02.070Z,28.50
2017-09-08T09:29:30.128Z,28.10
2017-09-08T09:31:58.213Z,27.60
2017-09-08T09:34:26.275Z,27.30
2017-09-08T09:36:54.360Z,26.40
2017-09-08T09:39:22.432Z,26.40
2017-09-08T09:41:50.499Z,25.60
2017-09-08T09:44:18.573Z,25.70
2017-09-08T09:46:46.809Z,25.60
2017-09-08T09:49:14.871Z,25.40
2017-09-08T09:51:42.954Z,24.90
2017-09-08T09:54:11.028Z,24.30
2017-09-08T09:56:39.115Z,24.40
2017-09-08T09:59:07.232Z,24.50
2017-09-08T10:01:36.068Z,23.80
2017-09-08T10:04:04.147Z,23.80
2017-09-08T10:06:32.240Z,23.70
2017-09-08T10:09:00.341Z,23.60
2017-09-08T10:11:28.412Z,22.70
2017-09-08T10:13:57.274Z,23.20
2017-09-08T10:16:25.336Z,23.20
2017-09-08T10:18:53.430Z,23.50
2017-09-08T10:21:21.505Z,23.40
2017-09-08T10:23:49.586Z,23.50
2017-09-08T10:26:18.429Z,22.90
2017-09-08T10:28:46.517Z,22.80
2017-09-08T10:31:14.593Z,22.60
2017-09-08T10:33:42.688Z,22.00
2017-09-08T10:36:11.523Z,22.60
2017-09-08T10:38:39.616Z,22.60
2017-09-08T10:41:07.691Z,22.90
2017-09-08T10:43:35.793Z,22.90
2017-09-08T10:46:03.877Z,22.30
2017-09-08T10:48:32.718Z,21.70
2017-09-08T10:51:00.800Z,21.70
2017-09-08T10:53:28.872Z,22.10
2017-09-08T10:55:56.948Z,22.10
2017-09-08T10:58:25.019Z,22.30
2017-09-08T11:00:53.096Z,22.10
2017-09-08T11:03:21.205Z,22.10
2017-09-08T11:05:50.072Z,22.10
2017-09-08T11:08:18.148Z,22.00
2017-09-08T11:10:46.236Z,22.00
2017-09-08T11:13:15.072Z,22.20
2017-09-08T11:15:43.144Z,21.80
2017-09-08T11:18:11.232Z,22.10
2017-09-08T11:20:39.314Z,22.20
2017-09-08T11:23:07.416Z,20.90
2017-09-08T11:25:36.277Z,21.50
2017-09-08T11:28:04.377Z,21.40
2017-09-08T11:30:33.224Z,21.00
2017-09-08T11:33:06.849Z,21.00
2017-09-08T11:38:40.644Z,21.00
2017-09-08T11:41:08.715Z,21.00
2017-09-08T11:43:36.797Z,21.10
2017-09-08T11:46:05.640Z,21.10
2017-09-08T11:48:33.737Z,21.10
2017-09-08T11:51:01.809Z,20.30
2017-09-08T11:53:29.880Z,20.70
2017-09-08T11:55:57.971Z,20.70
2017-09-08T11:58:26.061Z,20.10
2017-09-08T12:00:54.151Z,20.20
2017-09-08T12:03:22.223Z,20.10
2017-09-08T12:05:50.320Z,20.10
2017-09-08T12:08:19.184Z,19.70
2017-09-08T12:10:47.269Z,19.70
2017-09-08T12:13:15.331Z,20.00
2017-09-08T12:15:43.416Z,19.50
2017-09-08T12:18:11.487Z,19.20
2017-09-08T12:20:39.567Z,19.50
2017-09-08T12:23:07.640Z,19.30
2017-09-08T12:25:36.495Z,19.60
2017-09-08T12:28:04.573Z,19.40
2017-09-08T12:30:32.672Z,19.70
2017-09-08T12:33:01.520Z,19.40
2017-09-08T12:35:29.596Z,19.80
2017-09-08T12:37:57.695Z,19.50
2017-09-08T12:40:25.844Z,19.60
2017-09-08T12:42:53.924Z,19.90
2017-09-08T12:45:23.124Z,20.30
2017-09-08T12:47:51.204Z,20.30
2017-09-08T12:50:19.284Z,20.60
2017-09-08T12:52:47.378Z,20.20
2017-09-08T12:55:16.213Z,20.50
2017-09-08T12:57:44.296Z,20.90
2017-09-08T13:00:12.368Z,21.40
2017-09-08T13:02:40.465Z,21.10
2017-09-08T13:05:08.536Z,20.30
2017-09-08T13:07:36.625Z,20.90
2017-09-08T13:10:05.613Z,20.20
2017-09-08T13:12:33.680Z,20.50
2017-09-08T13:15:01.764Z,20.90
2017-09-08T13:17:30.622Z,21.50
2017-09-08T13:19:58.716Z,21.00
2017-09-08T13:22:26.788Z,20.60
2017-09-08T13:24:54.865Z,20.90
2017-09-08T13:27:22.980Z,20.60
2017-09-08T13:29:51.279Z,20.90
2017-09-08T13:32:19.381Z,21.40
2017-09-08T13:34:47.556Z,21.20
2017-09-08T13:37:15.632Z,21.20
2017-09-08T13:39:43.732Z,21.40
2017-09-08T13:42:12.628Z,21.80
2017-09-08T13:44:41.484Z,21.40
2017-09-08T13:47:09.558Z,21.30
2017-09-08T13:49:37.643Z,21.60
2017-09-08T13:52:05.727Z,21.20
2017-09-08T13:54:34.576Z,21.60
2017-09-08T13:57:02.680Z,21.60
2017-09-08T13:59:30.748Z,21.20
2017-09-08T14:01:58.836Z,21.60
2017-09-08T14:04:27.708Z,21.30
2017-09-08T14:06:55.783Z,21.30
2017-09-08T14:09:23.868Z,21.10
2017-09-08T14:11:51.996Z,21.20
2017-09-08T14:14:20.070Z,21.00
2017-09-08T14:16:48.151Z,21.00
2017-09-08T14:19:16.223Z,20.80
2017-09-08T14:21:44.324Z,20.90
2017-09-08T14:24:12.390Z,20.60
2017-09-08T14:26:40.468Z,20.60
2017-09-08T14:29:09.320Z,20.60
2017-09-08T14:31:37.418Z,20.60
2017-09-08T14:34:05.504Z,20.70
2017-09-08T14:36:33.582Z,20.00
2017-09-08T14:39:02.428Z,20.70
2017-09-08T14:41:30.552Z,20.30
2017-09-08T14:43:58.657Z,20.90
2017-09-08T14:46:26.736Z,19.40
2017-09-08T14:48:54.836Z,20.10
2017-09-08T14:51:22.905Z,20.90
2017-09-08T14:53:50.986Z,20.90
2017-09-08T14:56:19.064Z,20.10
2017-09-08T14:58:47.168Z,19.20
2017-09-08T15:01:16.005Z,19.50
2017-09-08T15:03:44.096Z,19.40
2017-09-08T15:06:12.171Z,19.50
2017-09-08T15:08:40.263Z,19.30
2017-09-08T15:11:09.121Z,19.40
2017-09-08T15:13:37.209Z,19.40
2017-09-08T15:16:05.285Z,19.20
2017-09-08T15:18:33.384Z,19.50
2017-09-08T15:21:02.232Z,19.80
2017-09-08T15:23:30.312Z,19.80
2017-09-08T15:25:58.392Z,20.20
2017-09-08T15:28:26.492Z,19.60
2017-09-08T15:30:54.601Z,19.90
2017-09-08T15:33:22.692Z,20.00
2017-09-08T15:35:50.816Z,20.10
2017-09-08T15:38:18.881Z,19.70
2017-09-08T15:40:47.733Z,19.60
2017-09-08T15:43:15.812Z,19.60
2017-09-08T15:45:43.894Z,19.50
2017-09-08T15:48:11.971Z,20.00
2017-09-08T15:50:40.054Z,19.60
2017-09-08T15:53:08.901Z,19.30
2017-09-08T15:55:37.032Z,19.60
2017-09-08T15:58:05.974Z,19.00
2017-09-08T16:00:34.048Z,19.00
2017-09-08T16:03:02.157Z,18.90
2017-09-08T16:05:31.031Z,18.90
2017-09-08T16:07:59.112Z,18.90
2017-09-08T16:10:27.188Z,19.20
2017-09-08T16:12:55.271Z,18.90
2017-09-08T16:15:24.113Z,19.40
2017-09-08T16:17:52.212Z,19.30
2017-09-08T16:20:20.309Z,19.30
2017-09-08T16:22:49.167Z,19.70
2017-09-08T16:25:17.244Z,19.70
2017-09-08T16:27:45.324Z,19.70
2017-09-08T16:30:13.391Z,19.90
2017-09-08T16:32:41.485Z,19.90
2017-09-08T16:35:10.355Z,19.90
2017-09-08T16:37:38.457Z,19.80
2017-09-08T16:40:07.318Z,21.20
2017-09-08T16:42:35.393Z,20.50
2017-09-08T16:45:03.493Z,20.40
2017-09-08T16:47:32.419Z,20.50
2017-09-08T16:50:00.516Z,20.50
2017-09-08T16:52:28.678Z,20.70
2017-09-08T16:54:57.713Z,20.80
2017-09-08T16:57:25.910Z,20.90
2017-09-08T16:59:55.082Z,21.30
2017-09-08T17:02:23.172Z,21.50
2017-09-08T17:04:52.032Z,22.40
2017-09-08T17:07:20.108Z,22.40
2017-09-08T17:09:48.220Z,22.40
2017-09-08T17:12:16.300Z,22.30
2017-09-08T17:14:45.372Z,22.90
2017-09-08T17:17:13.655Z,23.80
2017-09-08T17:19:42.499Z,23.00
2017-09-08T17:22:10.592Z,22.90
2017-09-08T17:24:38.685Z,23.10
2017-09-08T17:27:07.552Z,23.40
2017-09-08T17:29:35.637Z,23.40
2017-09-08T17:32:04.532Z,24.70
2017-09-08T17:34:32.603Z,24.10
2017-09-08T17:37:00.685Z,24.20
2017-09-08T17:39:28.756Z,24.40
2017-09-08T17:41:57.612Z,24.90
2017-09-08T17:44:25.705Z,24.30
2017-09-08T17:46:53.851Z,24.60
2017-09-08T17:49:21.932Z,24.80
2017-09-08T17:51:50.140Z,25.10
2017-09-08T17:54:19.031Z,25.50
2017-09-08T17:56:47.104Z,25.30
2017-09-08T17:59:15.958Z,25.90
2017-09-08T18:01:44.036Z,25.80
2017-09-08T18:04:12.124Z,26.20
2017-09-08T18:06:40.200Z,27.60
2017-09-08T18:09:08.305Z,26.60
2017-09-08T18:11:36.375Z,26.90
2017-09-08T18:14:04.460Z,27.20
2017-09-08T18:16:32.558Z,27.20
2017-09-08T18:19:00.645Z,26.90
2017-09-08T18:21:28.716Z,26.90
2017-09-08T18:23:56.798Z,26.70
2017-09-08T18:26:24.908Z,27.50
2017-09-08T18:28:53.788Z,26.80
2017-09-08T18:31:22.676Z,27.00
2017-09-08T18:33:50.753Z,27.00
2017-09-08T18:36:19.617Z,27.30
2017-09-08T18:38:47.689Z,27.40
2017-09-08T18:41:15.793Z,27.50
2017-09-08T18:43:44.638Z,27.80
2017-09-08T18:46:12.716Z,27.80
2017-09-08T18:48:40.808Z,27.80
2017-09-08T18:51:08.955Z,27.70
2017-09-08T18:53:37.073Z,28.00
2017-09-08T18:56:05.931Z,28.60
2017-09-08T18:58:34.029Z,28.50
2017-09-08T19:01:02.884Z,28.80
2017-09-08T19:03:30.988Z,28.80
2017-09-08T19:05:59.067Z,29.20
2017-09-08T19:08:27.152Z,29.30
2017-09-08T19:10:56.005Z,30.70
2017-09-08T19:13:24.100Z,30.60
2017-09-08T19:15:52.285Z,30.30
2017-09-08T19:18:21.178Z,31.10
2017-09-08T19:20:49.265Z,31.10
2017-09-08T19:23:17.363Z,31.30
2017-09-08T19:25:45.448Z,30.80
2017-09-08T19:28:13.533Z,31.20
2017-09-08T19:30:41.678Z,31.30
2017-09-08T19:33:09.767Z,31.40
2017-09-08T19:35:38.787Z,31.10
2017-09-08T19:38:06.881Z,30.90
2017-09-08T19:40:35.726Z,30.00
2017-09-08T19:43:03.805Z,30.00
2017-09-08T19:45:31.920Z,32.10
2017-09-08T19:48:00.783Z,32.10
2017-09-08T19:50:28.875Z,31.80
2017-09-08T19:52:56.950Z,29.30
2017-09-08T19:55:25.812Z,34.90
2017-09-08T19:57:53.908Z,35.40
2017-09-08T20:00:21.995Z,29.60
2017-09-08T20:02:50.845Z,29.70
2017-09-08T20:05:18.918Z,29.70
2017-09-08T20:07:46.997Z,29.80
2017-09-08T20:10:15.091Z,30.70
2017-09-08T20:12:43.167Z,30.50
2017-09-08T20:15:12.028Z,32.10
2017-09-08T20:17:40.099Z,32.00
2017-09-08T20:20:08.220Z,31.70
2017-09-08T20:22:36.296Z,30.80
2017-09-08T20:25:05.139Z,31.10
2017-09-08T20:27:33.224Z,31.10
2017-09-08T20:30:01.436Z,31.00
2017-09-08T20:32:29.516Z,31.30
2017-09-08T20:34:57.604Z,31.20
2017-09-08T20:37:25.697Z,31.50
2017-09-08T20:39:53.782Z,31.80
2017-09-08T20:42:21.857Z,31.50
2017-09-08T20:44:49.935Z,32.30
2017-09-08T20:47:18.016Z,31.40
2017-09-08T20:49:46.109Z,32.10
2017-09-08T20:52:14.960Z,32.00
2017-09-08T20:54:43.036Z,31.90
2017-09-08T20:57:11.128Z,32.30
2017-09-08T20:59:39.206Z,32.40
2017-09-08T21:02:08.057Z,31.80
2017-09-08T21:04:36.143Z,31.70
2017-09-08T21:07:04.229Z,33.40
2017-09-08T21:09:32.296Z,32.00
2017-09-08T21:12:00.392Z,31.90
2017-09-08T21:14:29.254Z,33.70
2017-09-08T21:16:57.338Z,33.50
2017-09-08T21:19:25.412Z,32.20
2017-09-08T21:21:53.500Z,32.60
2017-09-08T21:24:22.345Z,32.30
2017-09-08T21:26:50.412Z,32.20
2017-09-08T21:29:18.504Z,32.70
2017-09-08T21:31:46.604Z,32.50
2017-09-08T21:34:14.685Z,32.50
2017-09-08T21:36:43.539Z,32.60
2017-09-08T21:39:11.636Z,32.60
2017-09-08T21:41:39.711Z,32.50
2017-09-08T21:44:08.601Z,32.70
2017-09-08T21:46:37.448Z,33.80
2017-09-08T21:49:05.533Z,33.10
2017-09-08T21:51:33.624Z,34.00
2017-09-08T21:54:01.721Z,34.20
2017-09-08T21:56:29.928Z,34.40
2017-09-08T21:58:58.015Z,34.40
2017-09-08T22:01:26.092Z,34.60
2017-09-08T22:03:54.193Z,34.80
2017-09-08T22:06:22.273Z,35.00
2017-09-08T22:08:50.360Z,34.80
2017-09-08T22:11:19.215Z,35.80
2017-09-08T22:13:47.301Z,35.60
2017-09-08T22:16:15.439Z,35.70
2017-09-08T22:18:43.524Z,35.70
2017-09-08T22:21:11.608Z,35.60
2017-09-08T22:23:39.692Z,35.70
2017-09-08T22:26:07.928Z,35.60
2017-09-08T22:28:36.004Z,35.60
2017-09-08T22:31:04.852Z,35.70
2017-09-08T22:33:32.936Z,35.50
2017-09-08T22:36:01.020Z,35.60
2017-09-08T22:38:29.186Z,35.10
2017-09-08T22:40:58.040Z,35.70
2017-09-08T22:43:26.128Z,35.60
2017-09-08T22:45:54.987Z,35.60
2017-09-08T22:48:23.075Z,35.50
2017-09-08T22:50:51.159Z,35.60
2017-09-08T22:53:19.237Z,35.20
2017-09-08T22:55:47.413Z,35.60
2017-09-08T22:58:16.264Z,35.00
2017-09-08T23:00:44.362Z,34.80
2017-09-08T23:03:12.557Z,35.50
2017-09-08T23:05:41.411Z,35.50
2017-09-08T23:08:09.514Z,35.50
2017-09-08T23:10:37.596Z,35.50
2017-09-08T23:13:06.453Z,35.40
2017-09-08T23:15:34.627Z,35.40
2017-09-08T23:18:02.721Z,35.40
2017-09-08T23:20:30.793Z,35.90
2017-09-08T23:22:59.640Z,36.90
2017-09-08T23:25:27.732Z,36.60
2017-09-08T23:27:55.816Z,36.70
2017-09-08T23:30:23.900Z,36.90
2017-09-08T23:32:51.983Z,36.90
2017-09-08T23:35:20.828Z,36.90
2017-09-08T23:37:49.036Z,36.80
2017-09-08T23:40:17.112Z,37.00
2017-09-08T23:42:45.212Z,36.80
2017-09-08T23:45:13.281Z,36.80
2017-09-08T23:47:41.364Z,36.80
2017-09-08T23:50:09.452Z,37.00
2017-09-08T23:52:37.535Z,37.10
2017-09-08T23:55:05.619Z,37.20
2017-09-08T23:57:33.701Z,37.50
